Time;durP1;ratioP1;P1;durP2;ratioP2;P2;SDS_P1;SDS_P2;PMS_P1;PMS_P2;Temp;Humidity;BMP_temperature;BMP_pressure;BME280_temperature;BME280_humidity;BME280_pressure;Samples;Min_cycle;Max_cycle;Signal;HPM_P1;HPM_P2
2021/07/18 00:04:42;;;;;;;8.83;7.90;;;;;;;20.07;75.97;98496.69;260854;1093;22799;-70
2021/07/18 00:10:38;;;;;;;8.70;7.80;;;;;;;20.04;76.22;98494.69;261117;1092;22892;-69
2021/07/18 00:43:42;;;;;;;10.88;8.43;;;;;;;19.70;78.35;98486.19;260775;1093;25967;-70
2021/07/18 00:49:05;;;;;;;10.70;8.57;;;;;;;19.70;78.59;98486.19;260779;1093;22860;-69
2021/07/18 00:54:23;;;;;;;11.33;9.43;;;;;;;19.65;78.44;98489.98;260840;1092;22950;-69
2021/07/18 00:59:39;;;;;;;10.97;8.53;;;;;;;19.60;79.10;98487.53;260860;1093;22824;-68
2021/07/18 01:05:41;;;;;;;13.15;9.55;;;;;;;19.56;79.05;98498.34;260835;1092;22773;-70
2021/07/18 01:12:12;;;;;;;13.07;9.20;;;;;;;19.53;79.59;98512.64;260849;1093;22821;-69
2021/07/18 01:18:18;;;;;;;10.45;8.80;;;;;;;19.54;79.83;98527.77;261106;1092;22806;-70
2021/07/18 01:23:47;;;;;;;13.03;9.63;;;;;;;19.51;79.85;98531.20;260840;1092;22772;-68
2021/07/18 01:29:14;;;;;;;14.03;9.83;;;;;;;19.60;80.29;98523.66;260923;1091;27619;-69
2021/07/18 01:34:56;;;;;;;13.73;9.63;;;;;;;19.75;80.83;98526.67;260807;1093;25861;-69
2021/07/18 01:40:23;;;;;;;14.30;10.20;;;;;;;19.83;80.81;98534.64;260869;1093;24518;-69
2021/07/18 01:45:34;;;;;;;15.60;11.05;;;;;;;19.88;80.76;98524.64;260874;1093;22795;-69
2021/07/18 01:50:52;;;;;;;15.40;11.15;;;;;;;19.96;80.96;98516.30;260836;1093;22825;-69
2021/07/18 01:56:29;;;;;;;;;;;;;;;;;;;;;
2021/07/18 02:07:54;;;;;;;16.25;11.45;;;;;;;20.10;81.46;98495.95;260941;1093;22937;-68
2021/07/18 02:13:35;;;;;;;19.85;12.70;;;;;;;20.08;81.54;98506.42;261290;1093;24381;-69
2021/07/18 02:18:45;;;;;;;14.45;11.75;;;;;;;20.05;81.64;98497.05;260934;1092;22889;-68
2021/07/18 02:24:20;;;;;;;19.15;12.45;;;;;;;20.00;81.63;98491.88;260858;1093;24221;-68
2021/07/18 02:29:37;;;;;;;16.00;12.83;;;;;;;19.93;81.78;98511.55;261171;1093;22879;-70
2021/07/18 02:35:26;;;;;;;18.65;12.78;;;;;;;19.88;82.36;98509.14;260876;1093;23028;-69
2021/07/18 02:40:35;;;;;;;20.90;14.00;;;;;;;19.89;82.81;98502.53;260863;1093;26341;-70
2021/07/18 02:46:13;;;;;;;17.53;13.60;;;;;;;19.97;83.71;98500.77;260853;1093;22835;-69
2021/07/18 02:51:55;;;;;;;20.23;13.83;;;;;;;20.04;83.31;98498.18;260857;1093;22792;-68
2021/07/18 02:57:24;;;;;;;24.53;14.23;;;;;;;20.12;83.17;98504.56;260931;1093;27679;-68
2021/07/18 03:02:49;;;;;;;18.50;12.90;;;;;;;20.27;83.16;98506.41;260848;1092;22819;-69
2021/07/18 03:08:07;;;;;;;17.83;13.23;;;;;;;20.39;83.37;98508.17;260869;1093;22822;-69
2021/07/18 03:14:21;;;;;;;20.57;12.30;;;;;;;20.49;83.49;98512.23;261777;1093;23592;-69
2021/07/18 03:26:54;;;;;;;16.40;11.53;;;;;;;20.58;83.02;98533.77;260618;1092;22875;-68
2021/07/18 03:32:56;;;;;;;12.53;9.88;;;;;;;20.62;83.13;98529.98;260842;1092;22863;-69
2021/07/18 03:38:56;;;;;;;10.45;8.45;;;;;;;20.61;82.93;98522.95;260765;1093;22736;-69
2021/07/18 03:45:25;;;;;;;;;;;;;;;;;;;;;
2021/07/18 03:52:07;;;;;;;14.10;9.90;;;;;;;20.37;83.09;98523.27;260996;1092;22891;-69
2021/07/18 04:06:03;;;;;;;;;;;;;;;;;;;;;
2021/07/18 04:13:01;;;;;;;;;;;;;;;;;;;;;
2021/07/18 04:34:18;;;;;;;14.70;11.40;;;;;;;20.07;86.73;98513.00;261638;1092;26931;-72
2021/07/18 04:41:06;;;;;;;;;;;;;;;;;;;;;
2021/07/18 04:48:02;;;;;;;14.25;11.55;;;;;;;20.13;86.74;98520.52;261742;1092;22983;-72
2021/07/18 05:08:46;;;;;;;13.65;11.75;;;;;;;20.32;87.67;98527.86;261378;1093;22974;-72
2021/07/18 05:15:17;;;;;;;;;;;;;;;;;;;;;
2021/07/18 05:48:22;;;;;;;;;;;;;;;;;;;;;
2021/07/18 05:54:23;;;;;;;16.93;14.20;;;;;;;21.02;86.97;98588.63;261898;1091;23077;-72
2021/07/18 06:01:21;;;;;;;19.53;16.95;;;;;;;21.07;87.05;98603.91;261916;1093;22777;-73
2021/07/18 06:07:39;;;;;;;19.63;14.88;;;;;;;21.11;86.79;98607.47;261848;1093;22779;-71
2021/07/18 06:14:24;;;;;;;19.48;15.90;;;;;;;21.25;87.32;98611.58;261889;1093;22855;-72
2021/07/18 06:21:01;;;;;;;17.15;14.10;;;;;;;21.44;86.19;98611.50;261902;1093;22835;-72
2021/07/18 06:27:46;;;;;;;19.95;15.85;;;;;;;21.51;86.17;98610.83;261759;1091;22770;-74
2021/07/18 06:40:37;;;;;;;17.28;13.70;;;;;;;21.87;85.67;98603.22;261696;1093;26258;-73
2021/07/18 06:46:52;;;;;;;13.80;12.33;;;;;;;22.30;85.50;98601.06;261878;1093;22858;-72
2021/07/18 06:59:09;;;;;;;15.20;11.83;;;;;;;23.15;83.91;98626.97;261666;1092;22947;-71
2021/07/18 07:05:40;;;;;;;15.08;12.53;;;;;;;23.47;83.57;98623.72;261728;1093;22804;-72
2021/07/18 07:12:23;;;;;;;;;;;;;;;;;;;;;
2021/07/18 07:18:35;;;;;;;14.18;12.38;;;;;;;24.07;81.33;98625.32;261484;1093;26008;-72
2021/07/18 07:25:19;;;;;;;;;;;;;;;;;;;;;
2021/07/18 07:31:26;;;;;;;13.83;12.33;;;;;;;24.06;79.21;98645.66;261668;1092;22797;-71
2021/07/18 07:45:08;;;;;;;15.70;12.70;;;;;;;24.54;79.32;98652.92;261378;1093;22795;-70
2021/07/18 07:52:01;;;;;;;14.03;12.60;;;;;;;24.91;77.50;98651.10;261564;1093;22828;-72
2021/07/18 07:58:24;;;;;;;14.83;13.28;;;;;;;25.24;76.81;98649.22;261742;1093;22891;-70
2021/07/18 08:04:16;;;;;;;14.23;12.73;;;;;;;25.33;76.03;98640.63;261788;1093;24352;-70
2021/07/18 08:10:12;;;;;;;13.00;11.65;;;;;;;25.32;74.83;98650.80;260813;1093;22833;-69
2021/07/18 08:16:22;;;;;;;13.68;11.88;;;;;;;25.25;74.63;98640.59;260876;1093;22907;-70
2021/07/18 08:22:39;;;;;;;11.93;10.83;;;;;;;25.40;74.18;98646.88;260856;1093;22882;-70
2021/07/18 08:28:43;;;;;;;;;;;;;;;;;;;;;
2021/07/18 08:35:08;;;;;;;;;;;;;;;;;;;;;
2021/07/18 08:47:38;;;;;;;;;;;;;;;;;;;;;
2021/07/18 08:54:23;;;;;;;;;;;;;;;;;;;;;
2021/07/18 09:01:14;;;;;;;14.17;12.70;;;;;;;25.41;72.42;98653.94;260691;1092;25890;-70
2021/07/18 09:07:30;;;;;;;14.65;12.05;;;;;;;25.70;73.07;98655.88;261682;1091;22797;-69
2021/07/18 09:13:44;;;;;;;13.13;11.48;;;;;;;25.99;72.20;98650.37;261812;1093;25438;-68
2021/07/18 09:20:05;;;;;;;;;;;;;;;;;;;;;
2021/07/18 09:26:38;;;;;;;;;;;;;;;;;;;;;
2021/07/18 09:32:58;;;;;;;11.85;10.58;;;;;;;26.12;68.91;98660.56;260824;1093;24044;-69
2021/07/18 09:39:35;;;;;;;;;;;;;;;;;;;;;
2021/07/18 09:45:45;;;;;;;12.60;10.85;;;;;;;25.88;69.82;98659.41;260881;1093;22816;-69
2021/07/18 09:52:20;;;;;;;11.73;10.45;;;;;;;26.18;70.40;98660.16;260869;1092;22802;-68
2021/07/18 09:58:38;;;;;;;10.50;9.38;;;;;;;26.44;69.33;98650.64;260910;1093;22795;-69
2021/07/18 10:04:51;;;;;;;;;;;;;;;;;;;;;
2021/07/18 10:11:19;;;;;;;9.80;8.78;;;;;;;26.89;66.46;98661.06;261722;1092;22953;-69
2021/07/18 10:17:15;;;;;;;12.10;9.20;;;;;;;26.98;65.04;98672.41;261333;1091;22844;-71
2021/07/18 10:23:48;;;;;;;12.95;9.38;;;;;;;27.17;65.07;98662.07;261075;1093;23533;-68
2021/07/18 10:29:52;;;;;;;10.55;9.55;;;;;;;27.18;64.29;98658.91;260877;1093;25886;-70
2021/07/18 10:36:03;;;;;;;;;;;;;;;;;;;;;
2021/07/18 10:43:06;;;;;;;;;;;;;;;;;;;;;
2021/07/18 11:02:57;;;;;;;11.05;9.95;;;;;;;27.89;60.54;98607.25;261757;1092;22956;-69
2021/07/18 11:09:45;;;;;;;9.40;8.53;;;;;;;27.89;60.74;98607.25;260740;1093;22947;-69
2021/07/18 11:15:53;;;;;;;11.35;10.28;;;;;;;27.89;59.79;98617.48;260817;1093;23137;-69
2021/07/18 11:22:34;;;;;;;11.33;9.30;;;;;;;27.95;58.67;98604.83;260773;1093;22789;-70
2021/07/18 11:35:17;;;;;;;;;;;;;;;;;;;;;
2021/07/18 11:42:10;;;;;;;12.05;10.85;;;;;;;28.19;56.40;98599.47;260722;1093;22884;-69
2021/07/18 11:48:54;;;;;;;;;;;;;;;;;;;;;
2021/07/18 11:55:16;;;;;;;11.68;10.13;;;;;;;28.57;57.47;98588.36;260866;1093;22825;-67
2021/07/18 12:01:14;;;;;;;11.83;10.63;;;;;;;28.80;56.74;98585.70;260909;1093;22879;-71
2021/07/18 12:15:12;;;;;;;11.30;9.83;;;;;;;28.84;56.03;98561.61;260154;1092;22822;-72
2021/07/18 12:22:06;;;;;;;10.90;9.90;;;;;;;28.96;56.36;98570.50;260020;1093;22828;-69
2021/07/18 12:35:42;;;;;;;10.85;9.85;;;;;;;28.50;55.83;98564.47;260139;1093;22935;-68
2021/07/18 12:42:33;;;;;;;10.65;9.68;;;;;;;28.51;56.51;98572.31;260155;1093;22953;-68
2021/07/18 12:49:26;;;;;;;10.18;9.10;;;;;;;28.44;54.34;98569.66;260941;1093;22812;-71
2021/07/18 13:16:43;;;;;;;9.08;8.00;;;;;;;28.50;53.74;98556.97;260854;1093;22790;-69
2021/07/18 13:23:32;;;;;;;;;;;;;;;;;;;;;
2021/07/18 13:36:57;;;;;;;;;;;;;;;;;;;;;
2021/07/18 13:44:05;;;;;;;8.38;7.68;;;;;;;28.80;50.46;98514.03;260860;1093;23013;-69
2021/07/18 13:50:18;;;;;;;8.93;7.60;;;;;;;28.78;50.87;98516.44;260752;1093;22829;-69
2021/07/18 13:56:35;;;;;;;;;;;;;;;;;;;;;
2021/07/18 14:09:36;;;;;;;7.60;7.00;;;;;;;28.98;49.37;98501.95;260826;1093;22802;-68
2021/07/18 14:30:07;;;;;;;;;;;;;;;;;;;;;
2021/07/18 15:04:20;;;;;;;8.08;7.38;;;;;;;29.16;49.00;98509.92;260623;1093;22801;-69
2021/07/18 15:10:32;;;;;;;;;;;;;;;;;;;;;
2021/07/18 15:16:56;;;;;;;;;;;;;;;;;;;;;
2021/07/18 15:23:32;;;;;;;8.43;7.63;;;;;;;29.26;48.00;98513.72;260756;1093;25897;-68
2021/07/18 15:36:49;;;;;;;;;;;;;;;29.26;48.23;98516.48;260704;1092;23277;-68
2021/07/18 15:50:55;;;;;;;7.80;6.93;;;;;;;29.00;47.94;98516.08;260844;1093;22837;-69
2021/07/18 15:57:51;;;;;;;8.03;7.20;;;;;;;28.66;47.82;98514.27;260263;1093;22822;-70
2021/07/18 16:04:42;;;;;;;8.38;7.58;;;;;;;28.42;48.04;98505.16;260668;1093;22816;-69
2021/07/18 16:18:31;;;;;;;7.23;6.63;;;;;;;28.56;48.57;98485.65;260854;1093;22815;-67
2021/07/18 16:25:37;;;;;;;6.33;5.73;;;;;;;28.51;46.31;98488.86;260860;1093;22927;-68
2021/07/18 16:45:46;;;;;;;5.70;5.18;;;;;;;28.15;45.78;98503.16;260769;1093;23058;-68
2021/07/18 17:32:49;;;;;;;;;;;;;;;;;;;;;
2021/07/18 17:39:36;;;;;;;5.87;5.37;;;;;;;25.67;52.20;98531.28;260883;1091;22810;-69
2021/07/18 17:46:13;;;;;;;;;;;;;;;;;;;;;
2021/07/18 17:52:17;;;;;;;5.93;5.40;;;;;;;25.78;52.36;98534.80;260860;1092;22795;-67
2021/07/18 18:04:50;;;;;;;6.30;5.55;;;;;;;25.38;53.77;98527.81;260852;1093;23010;-69
2021/07/18 18:11:45;;;;;;;;;;;;;;;;;;;;;
2021/07/18 18:18:25;;;;;;;6.43;5.55;;;;;;;25.00;55.28;98530.97;260726;1093;22897;-68
2021/07/18 18:38:40;;;;;;;;;;;;;;;;;;;;;
2021/07/18 18:59:13;;;;;;;;;;;;;;;;;;;;;
2021/07/18 19:06:00;;;;;;;;;;;;;;;;;;;;;
2021/07/18 19:11:12;;;;;;;5.33;4.60;;;;;;;23.28;58.08;98544.70;260893;1093;22905;-68
2021/07/18 19:24:53;;;;;;;7.43;5.50;;;;;;;22.90;59.05;98572.07;260672;1092;22797;-69
2021/07/18 19:39:11;;;;;;;6.65;5.40;;;;;;;22.58;60.24;98566.30;260902;1093;22941;-69
2021/07/18 19:46:10;;;;;;;;;;;;;;;;;;;;;
2021/07/18 19:59:56;;;;;;;8.95;6.35;;;;;;;22.22;61.88;98572.12;260755;1093;22806;-68
2021/07/18 20:13:13;;;;;;;;;;;;;;;;;;;;;
2021/07/18 20:19:43;;;;;;;9.40;6.47;;;;;;;21.81;62.88;98569.23;260981;1093;26421;-69
2021/07/18 20:26:42;;;;;;;;;;;;;;;;;;;;;
2021/07/18 20:33:41;;;;;;;8.30;6.90;;;;;;;21.58;63.73;98578.27;260941;1093;27108;-68
2021/07/18 20:40:46;;;;;;;8.28;6.78;;;;;;;21.43;63.72;98574.50;260755;1093;22801;-68
2021/07/18 21:08:06;;;;;;;8.30;6.45;;;;;;;20.98;65.81;98570.67;260919;1093;22808;-68
2021/07/18 21:28:30;;;;;;;;;;;;;;;;;;;;;
2021/07/18 21:34:31;;;;;;;;;;;;;;;;;;;;;
2021/07/18 21:41:16;;;;;;;;;;;;;;;;;;;;;
2021/07/18 21:47:53;;;;;;;;;;;;;;;;;;;;;
2021/07/18 21:54:19;;;;;;;;;;;;;;;;;;;;;
2021/07/18 22:01:01;;;;;;;;;;;;;;;;;;;;;
2021/07/18 22:07:40;;;;;;;6.53;4.70;;;;;;;20.12;68.41;98559.72;260853;1092;22790;-69
2021/07/18 22:14:32;;;;;;;6.05;3.90;;;;;;;20.07;68.72;98564.66;260506;1093;22810;-68
2021/07/18 22:21:36;;;;;;;;;;;;;;;;;;;;;
2021/07/18 22:35:50;;;;;;;4.90;3.15;;;;;;;19.90;69.49;98577.51;261439;1092;22781;-68
2021/07/18 22:42:23;;;;;;;;;;;;;;;;;;;;;
2021/07/18 22:49:15;;;;;;;3.65;2.70;;;;;;;19.85;69.75;98596.02;260879;1093;22802;-68
2021/07/18 23:10:22;;;;;;;3.85;3.00;;;;;;;19.62;70.38;98596.66;260744;1093;22825;-69
2021/07/18 23:23:59;;;;;;;6.10;2.85;;;;;;;19.54;70.89;98617.42;260876;1093;22798;-68
2021/07/18 23:30:48;;;;;;;;;;;;;;;;;;;;;
2021/07/18 23:51:53;;;;;;;3.40;2.30;;;;;;;19.27;71.40;98625.31;260727;1092;23061;-69
2021/07/18 23:58:57;;;;;;;5.15;2.70;;;;;;;19.21;71.43;98626.73;261103;1092;23610;-67
